Mattawa, Washington
Current Conditions -  °F | °C
As of 10:56 AM on Wednesday 17 Dec 2014 (Local Time) from K1YT Reporting Station
Overcast Overcast  
Wind Chill: 37°   Ceiling: 2200
Heat Index: 37°   Visibility: 10mi
Dew Point: 35°   Wind: 3mph
Humidity: 94%   Direction: 300°WNW
Pressure: 29.92"   Gusts: NA
Location:  46.74°N, 119.9°W
Report Text: K1YT 171856Z AUTO 30003KT 10SM OVC022 03/02 A2992 RMK AO2 SLPNO T00270018
Loading
Personal Weather Stations






























Interactive Weather Map New forecast layout! Learn more

10-Day Weather Forecast

Advertisements
Track Severe Weather on mobile